createdAt,value
2023-02-25T00:01:41.716Z,47.17
2023-02-25T00:04:11.566Z,50.67
2023-02-25T00:06:39.343Z,40.95
2023-02-25T00:09:11.267Z,48.42
2023-02-25T00:11:38.583Z,40.15
2023-02-25T00:14:05.929Z,40.35
2023-02-25T00:16:33.311Z,29.98
2023-02-25T00:19:00.353Z,38.83
2023-02-25T00:21:29.514Z,23.42
2023-02-25T00:24:04.489Z,27.55
2023-02-25T00:26:41.544Z,25.38
2023-02-25T00:29:08.553Z,34.15
2023-02-25T00:31:36.010Z,31.67
2023-02-25T00:34:03.050Z,26.23
2023-02-25T00:36:30.480Z,20.13
2023-02-25T00:38:58.160Z,25.10
2023-02-25T00:41:28.257Z,23.73
2023-02-25T00:44:02.066Z,23.63
2023-02-25T00:46:30.940Z,24.08
2023-02-25T00:48:58.999Z,26.08
2023-02-25T00:51:29.859Z,29.63
2023-02-25T00:53:57.255Z,22.60
2023-02-25T00:56:26.629Z,24.08
2023-02-25T00:58:53.836Z,76.15
2023-02-25T01:01:33.619Z,36.10
2023-02-25T01:04:01.073Z,36.10
2023-02-25T01:06:29.860Z,86.05
2023-02-25T01:08:58.647Z,36.92
2023-02-25T01:11:32.838Z,39.88
2023-02-25T01:14:03.157Z,44.40
2023-02-25T01:16:32.705Z,47.20
2023-02-25T01:19:02.639Z,29.90
2023-02-25T01:21:34.139Z,33.40
2023-02-25T01:24:04.408Z,39.08
2023-02-25T01:26:34.230Z,33.92
2023-02-25T01:29:01.486Z,31.80
2023-02-25T01:31:32.001Z,33.30
2023-02-25T01:34:00.190Z,31.95
2023-02-25T01:36:29.964Z,35.97
2023-02-25T01:38:58.822Z,29.48
2023-02-25T01:41:28.186Z,29.10
2023-02-25T01:44:18.503Z,27.98
2023-02-25T01:46:47.710Z,31.98
2023-02-25T01:49:36.156Z,26.90
2023-02-25T01:52:04.648Z,23.45
2023-02-25T01:54:33.616Z,23.00
2023-02-25T01:57:01.810Z,21.98
2023-02-25T01:59:30.578Z,25.50
2023-02-25T02:01:58.651Z,20.85
2023-02-25T02:04:28.626Z,26.17
2023-02-25T02:06:56.546Z,25.08
2023-02-25T02:09:27.463Z,22.23
2023-02-25T02:12:00.111Z,24.67
2023-02-25T02:14:33.020Z,22.30
2023-02-25T02:17:38.286Z,23.55
2023-02-25T02:20:14.473Z,31.10
2023-02-25T02:23:03.992Z,30.60
2023-02-25T02:25:51.601Z,26.60
2023-02-25T02:28:38.459Z,25.80
2023-02-25T02:31:34.128Z,30.10
2023-02-25T02:34:30.365Z,23.42
2023-02-25T02:37:09.020Z,21.80
2023-02-25T02:40:15.267Z,23.33
2023-02-25T02:43:17.656Z,29.13
2023-02-25T02:45:56.242Z,29.67
2023-02-25T02:48:32.211Z,24.73
2023-02-25T02:51:02.980Z,30.20
2023-02-25T02:53:41.026Z,28.25
2023-02-25T02:56:12.334Z,27.05
2023-02-25T02:58:44.386Z,29.25
2023-02-25T03:01:18.353Z,28.48
2023-02-25T03:03:59.812Z,29.08
2023-02-25T03:06:33.327Z,29.20
2023-02-25T03:09:10.536Z,24.27
2023-02-25T03:11:38.677Z,23.92
2023-02-25T03:14:08.905Z,24.52
2023-02-25T03:17:08.780Z,25.23
2023-02-25T03:19:42.119Z,21.85
2023-02-25T03:22:14.165Z,21.23
2023-02-25T03:24:55.503Z,24.38
2023-02-25T03:27:39.644Z,21.92
2023-02-25T03:30:15.340Z,23.67
2023-02-25T03:32:47.993Z,23.13
2023-02-25T03:35:18.868Z,25.27
2023-02-25T03:37:50.246Z,26.85
2023-02-25T03:40:19.609Z,27.40
2023-02-25T03:42:54.554Z,24.02
2023-02-25T03:45:22.931Z,22.58
2023-02-25T03:47:51.061Z,22.60
2023-02-25T03:50:30.960Z,31.67
2023-02-25T03:53:03.829Z,33.95
2023-02-25T03:55:48.508Z,29.35
2023-02-25T03:58:16.060Z,37.30
2023-02-25T04:00:46.083Z,50.22
2023-02-25T04:03:13.530Z,57.35
2023-02-25T04:05:41.301Z,40.67
2023-02-25T04:08:15.702Z,44.13
2023-02-25T04:10:44.235Z,30.88
2023-02-25T04:13:14.998Z,31.92
2023-02-25T04:15:42.791Z,35.65
2023-02-25T04:18:10.113Z,34.78
2023-02-25T04:20:37.216Z,30.42
2023-02-25T04:23:04.742Z,54.13
2023-02-25T04:25:31.739Z,59.42
2023-02-25T04:27:59.193Z,51.53
2023-02-25T04:30:26.563Z,44.08
2023-02-25T04:32:54.039Z,42.70
2023-02-25T04:35:21.020Z,30.70
2023-02-25T04:37:48.280Z,40.58
2023-02-25T04:40:19.067Z,53.47
2023-02-25T04:42:46.829Z,70.50
2023-02-25T04:45:15.266Z,61.00
2023-02-25T04:47:45.466Z,64.28
2023-02-25T04:50:13.285Z,50.35
2023-02-25T04:52:40.693Z,47.60
2023-02-25T04:55:09.836Z,39.35
2023-02-25T04:57:42.298Z,39.15
2023-02-25T05:00:15.580Z,42.28
2023-02-25T05:02:43.478Z,42.25
2023-02-25T05:05:11.227Z,47.33
2023-02-25T05:07:39.050Z,59.10
2023-02-25T05:10:07.897Z,47.40
2023-02-25T05:12:35.193Z,42.63
2023-02-25T05:15:05.251Z,34.35
2023-02-25T05:17:33.308Z,31.70
2023-02-25T05:20:00.942Z,43.33
2023-02-25T05:22:28.664Z,35.72
2023-02-25T05:24:55.753Z,38.90
2023-02-25T05:27:23.053Z,35.45
2023-02-25T05:29:51.533Z,39.15
2023-02-25T05:32:18.955Z,34.70
2023-02-25T05:34:46.050Z,36.60
2023-02-25T05:37:13.543Z,39.08
2023-02-25T05:39:40.532Z,55.63
2023-02-25T05:42:08.011Z,39.95
2023-02-25T05:44:35.457Z,30.77
2023-02-25T05:47:03.402Z,30.88
2023-02-25T05:49:30.868Z,33.65
2023-02-25T05:51:58.165Z,31.45
2023-02-25T05:54:25.558Z,38.03
2023-02-25T05:56:53.365Z,36.13
2023-02-25T05:59:20.466Z,38.05
2023-02-25T06:01:48.437Z,39.40
2023-02-25T06:04:15.858Z,42.20
2023-02-25T06:06:43.243Z,56.22
2023-02-25T06:09:10.353Z,72.60
2023-02-25T06:11:37.771Z,57.70
2023-02-25T06:14:04.826Z,63.72
2023-02-25T06:16:32.842Z,73.97
2023-02-25T06:19:01.408Z,63.97
2023-02-25T06:21:29.752Z,47.50
2023-02-25T06:23:56.787Z,61.20
2023-02-25T06:26:24.440Z,44.05
2023-02-25T06:28:51.895Z,44.80
2023-02-25T06:31:20.637Z,58.03
2023-02-25T06:33:48.690Z,51.47
2023-02-25T06:36:16.665Z,44.67
2023-02-25T06:38:46.313Z,47.40
2023-02-25T06:41:16.564Z,45.17
2023-02-25T06:43:44.655Z,82.07
2023-02-25T06:46:14.561Z,64.63
2023-02-25T06:48:42.240Z,75.65
2023-02-25T06:51:11.362Z,49.63
2023-02-25T06:53:42.907Z,70.55
2023-02-25T06:56:13.034Z,44.92
2023-02-25T06:58:40.539Z,47.65
2023-02-25T07:01:14.379Z,49.78
2023-02-25T07:03:44.702Z,65.15
2023-02-25T07:06:14.009Z,56.28
2023-02-25T07:08:41.327Z,43.45
2023-02-25T07:11:14.942Z,65.88
2023-02-25T07:13:43.391Z,72.05
2023-02-25T07:16:15.155Z,78.90
2023-02-25T07:18:42.876Z,73.18
2023-02-25T07:21:12.436Z,53.90
2023-02-25T07:23:40.034Z,53.90
2023-02-25T07:26:09.583Z,48.50
2023-02-25T07:28:37.355Z,49.25
2023-02-25T07:31:13.396Z,67.35
2023-02-25T07:33:42.039Z,50.38
2023-02-25T07:36:11.097Z,49.78
2023-02-25T07:38:38.872Z,54.65
2023-02-25T07:41:11.951Z,52.92
2023-02-25T07:43:40.074Z,58.72
2023-02-25T07:46:09.350Z,54.67
2023-02-25T07:48:39.972Z,49.55
2023-02-25T07:51:12.754Z,41.42
2023-02-25T07:53:42.960Z,47.90
2023-02-25T07:56:11.281Z,48.55
2023-02-25T07:58:38.715Z,42.95
2023-02-25T08:01:11.138Z,37.58
2023-02-25T08:03:39.069Z,36.10
2023-02-25T08:06:08.284Z,31.90
2023-02-25T08:08:36.277Z,31.92
2023-02-25T08:11:08.445Z,33.53
2023-02-25T08:13:36.221Z,40.75
2023-02-25T08:16:09.034Z,83.18
2023-02-25T08:18:36.570Z,86.05
2023-02-25T08:21:04.607Z,98.97
2023-02-25T08:23:31.814Z,92.70
2023-02-25T08:25:59.635Z,65.53
2023-02-25T08:28:27.789Z,125.13
2023-02-25T08:30:55.934Z,75.15
2023-02-25T08:33:24.016Z,67.97
2023-02-25T08:35:51.539Z,63.83
2023-02-25T08:38:19.248Z,105.70
2023-02-25T08:40:46.655Z,94.00
2023-02-25T08:43:13.771Z,62.85
2023-02-25T08:45:41.914Z,55.55
2023-02-25T08:48:09.898Z,61.40
2023-02-25T08:50:37.298Z,92.97
2023-02-25T08:53:04.329Z,66.30
2023-02-25T08:55:35.352Z,122.93
2023-02-25T08:58:04.697Z,145.07
2023-02-25T09:00:32.591Z,456.08
2023-02-25T09:02:59.786Z,94.65
2023-02-25T09:05:27.142Z,93.22
2023-02-25T09:07:55.406Z,56.58
2023-02-25T09:10:23.893Z,54.65
2023-02-25T09:12:51.009Z,47.22
2023-02-25T09:15:18.446Z,56.80
2023-02-25T09:17:47.811Z,66.65
2023-02-25T09:20:18.055Z,60.25
2023-02-25T09:22:45.187Z,76.97
2023-02-25T09:25:13.887Z,47.83
2023-02-25T09:27:43.788Z,62.60
2023-02-25T09:30:11.484Z,58.47
2023-02-25T09:32:38.599Z,80.22
2023-02-25T09:35:07.544Z,74.25
2023-02-25T09:37:35.971Z,62.13
2023-02-25T09:40:08.373Z,66.07
2023-02-25T09:43:16.593Z,52.55
2023-02-25T09:45:47.621Z,42.70
2023-02-25T09:48:21.213Z,56.72
2023-02-25T09:50:57.006Z,40.13
2023-02-25T09:53:40.151Z,64.13
2023-02-25T09:56:12.138Z,40.63
2023-02-25T09:58:42.235Z,56.67
2023-02-25T10:01:24.905Z,66.22
2023-02-25T10:04:02.503Z,53.63
2023-02-25T10:06:36.178Z,59.63
2023-02-25T10:09:31.432Z,88.05
2023-02-25T10:14:52.221Z,55.33
2023-02-25T10:17:44.356Z,126.35
2023-02-25T10:20:50.060Z,133.70
2023-02-25T10:23:54.869Z,62.33
2023-02-25T10:26:29.898Z,31.60
2023-02-25T10:29:04.410Z,33.58
2023-02-25T10:31:35.108Z,33.33
2023-02-25T10:34:26.069Z,68.50
2023-02-25T10:36:59.007Z,59.70
2023-02-25T10:39:28.602Z,44.50
2023-02-25T10:41:58.703Z,50.85
2023-02-25T10:44:26.093Z,45.75
2023-02-25T10:47:04.103Z,47.05
2023-02-25T10:49:38.282Z,151.30
2023-02-25T10:52:17.985Z,140.02
2023-02-25T10:54:51.136Z,46.72
2023-02-25T10:57:42.034Z,47.90
2023-02-25T11:00:31.266Z,50.00
2023-02-25T11:03:01.637Z,48.75
2023-02-25T11:05:37.683Z,30.00
2023-02-25T11:08:11.021Z,25.00
2023-02-25T11:10:39.851Z,29.60
2023-02-25T11:13:28.806Z,57.35
2023-02-25T11:15:58.114Z,39.35
2023-02-25T11:18:32.183Z,37.13
2023-02-25T11:21:08.850Z,49.17
2023-02-25T11:23:46.641Z,39.28
2023-02-25T11:26:37.139Z,56.88
2023-02-25T11:29:21.005Z,78.07
2023-02-25T11:31:52.232Z,37.90
2023-02-25T11:34:28.259Z,64.28
2023-02-25T11:36:55.685Z,43.80
2023-02-25T11:39:25.364Z,43.65
2023-02-25T11:41:55.579Z,299.55
2023-02-25T11:44:43.350Z,98.47
2023-02-25T11:47:14.297Z,173.63
2023-02-25T11:49:42.661Z,298.55
2023-02-25T11:52:13.345Z,154.02
2023-02-25T11:55:04.650Z,79.60
2023-02-25T11:57:47.434Z,226.02
2023-02-25T12:00:36.037Z,319.80
2023-02-25T12:03:40.555Z,117.18
2023-02-25T12:06:13.669Z,174.98
2023-02-25T12:08:57.027Z,325.20
2023-02-25T12:11:48.430Z,232.27
2023-02-25T12:14:34.579Z,512.00
2023-02-25T12:17:28.325Z,168.00
2023-02-25T12:20:30.704Z,235.43
2023-02-25T12:23:16.342Z,580.20
2023-02-25T12:26:21.750Z,439.92
2023-02-25T12:28:55.322Z,118.30
2023-02-25T12:31:31.575Z,153.65
2023-02-25T12:34:11.362Z,285.35
2023-02-25T12:36:41.408Z,269.13
2023-02-25T12:39:29.997Z,339.88
2023-02-25T12:42:06.244Z,223.32
2023-02-25T12:44:51.439Z,240.50
2023-02-25T12:47:25.756Z,84.80
2023-02-25T12:50:15.751Z,222.38
2023-02-25T12:53:01.181Z,109.35
2023-02-25T12:55:46.597Z,130.63
2023-02-25T12:58:40.185Z,101.18
2023-02-25T13:01:29.994Z,111.60
2023-02-25T13:04:22.721Z,109.63
2023-02-25T13:07:22.736Z,254.13
2023-02-25T13:10:05.018Z,152.48
2023-02-25T13:12:53.966Z,120.18
2023-02-25T13:15:30.661Z,120.70
2023-02-25T13:18:23.872Z,188.20
2023-02-25T13:21:25.800Z,146.32
2023-02-25T13:24:20.071Z,64.82
2023-02-25T13:27:11.244Z,223.60
2023-02-25T13:30:06.054Z,80.10
2023-02-25T13:32:58.329Z,183.18
2023-02-25T13:35:50.018Z,150.70
2023-02-25T13:38:39.017Z,247.85
2023-02-25T13:41:31.785Z,207.15
2023-02-25T13:43:59.052Z,214.43
2023-02-25T13:47:02.966Z,109.75
2023-02-25T13:49:51.035Z,75.50
2023-02-25T13:52:30.758Z,70.38
2023-02-25T13:55:32.483Z,30.80
2023-02-25T13:58:19.273Z,36.47
2023-02-25T14:01:19.151Z,229.50
2023-02-25T14:04:22.457Z,77.38
2023-02-25T14:07:32.841Z,30.73
2023-02-25T14:10:31.243Z,35.92
2023-02-25T14:13:12.879Z,21.45
2023-02-25T14:16:01.314Z,17.20
2023-02-25T14:18:45.382Z,19.17
2023-02-25T14:21:43.317Z,17.35
2023-02-25T14:24:23.509Z,26.55
2023-02-25T14:27:04.813Z,23.95
2023-02-25T14:29:43.136Z,15.38
2023-02-25T14:32:37.037Z,41.03
2023-02-25T14:35:18.034Z,133.27
2023-02-25T14:38:09.828Z,339.08
2023-02-25T14:41:01.119Z,307.95
2023-02-25T14:43:32.418Z,338.63
2023-02-25T14:46:29.771Z,265.65
2023-02-25T14:49:11.673Z,134.57
2023-02-25T14:52:03.904Z,227.57
2023-02-25T14:55:05.982Z,274.08
2023-02-25T14:57:51.516Z,202.15
2023-02-25T15:00:48.606Z,139.60
2023-02-25T15:03:22.417Z,112.40
2023-02-25T15:05:55.388Z,124.38
2023-02-25T15:08:34.366Z,101.78
2023-02-25T15:11:19.878Z,330.67
2023-02-25T15:14:21.694Z,67.93
2023-02-25T15:17:16.139Z,109.30
2023-02-25T15:19:49.762Z,92.57
2023-02-25T15:22:26.273Z,67.28
2023-02-25T15:25:19.996Z,63.22
2023-02-25T15:27:52.116Z,44.63
2023-02-25T15:30:22.757Z,37.67
2023-02-25T15:33:02.220Z,33.25
2023-02-25T15:35:35.457Z,47.75
2023-02-25T15:38:10.040Z,35.45
2023-02-25T15:40:51.108Z,52.58
2023-02-25T15:43:18.138Z,64.38
2023-02-25T15:45:51.421Z,39.08
2023-02-25T15:48:21.351Z,27.45
2023-02-25T15:50:48.705Z,68.78
2023-02-25T15:53:21.870Z,23.50
2023-02-25T15:56:03.495Z,40.38
2023-02-25T15:58:30.558Z,43.58
2023-02-25T16:01:00.005Z,26.13
2023-02-25T16:03:35.948Z,27.40
2023-02-25T16:06:20.069Z,23.90
2023-02-25T16:08:53.553Z,20.33
2023-02-25T16:11:35.749Z,16.27
2023-02-25T16:14:25.216Z,16.42
2023-02-25T16:16:57.541Z,15.25
2023-02-25T16:19:33.473Z,14.65
2023-02-25T16:22:19.284Z,10.70
2023-02-25T16:24:53.864Z,30.02
2023-02-25T16:27:52.943Z,22.52
2023-02-25T16:30:36.007Z,17.65
2023-02-25T16:33:18.794Z,13.18
2023-02-25T16:35:55.420Z,11.43
2023-02-25T16:38:39.490Z,20.20
2023-02-25T16:41:06.729Z,13.70
2023-02-25T16:43:38.084Z,26.95
2023-02-25T16:46:12.869Z,10.30
2023-02-25T16:51:18.107Z,34.30
2023-02-25T16:53:46.920Z,13.68
2023-02-25T16:56:19.978Z,14.20
2023-02-25T16:59:09.117Z,16.92
2023-02-25T17:01:38.052Z,9.07
2023-02-25T17:04:17.241Z,10.75
2023-02-25T17:06:44.653Z,11.77
2023-02-25T17:09:26.470Z,10.18
2023-02-25T17:11:55.801Z,83.57
2023-02-25T17:14:25.023Z,144.10
2023-02-25T17:16:56.009Z,25.35
2023-02-25T17:19:24.476Z,24.73
2023-02-25T17:21:56.203Z,9.70
2023-02-25T17:24:29.492Z,9.43
2023-02-25T17:26:57.206Z,99.95
2023-02-25T17:29:35.840Z,8.57
2023-02-25T17:32:18.375Z,21.13
2023-02-25T17:34:47.239Z,11.77
2023-02-25T17:37:16.177Z,10.25
2023-02-25T17:39:45.018Z,10.30
2023-02-25T17:42:34.632Z,5.93
2023-02-25T17:45:05.043Z,6.80
2023-02-25T17:47:37.539Z,12.40
2023-02-25T17:50:34.221Z,9.40
2023-02-25T17:53:01.185Z,12.50
2023-02-25T17:55:34.079Z,13.13
2023-02-25T17:58:03.181Z,10.00
2023-02-25T18:00:35.922Z,13.52
2023-02-25T18:03:16.994Z,15.68
2023-02-25T18:06:02.694Z,11.57
2023-02-25T18:11:35.537Z,16.48
2023-02-25T18:14:20.963Z,16.63
2023-02-25T18:16:48.408Z,19.38
2023-02-25T18:19:24.547Z,15.82
2023-02-25T18:21:52.843Z,13.60
2023-02-25T18:24:34.834Z,20.90
2023-02-25T18:27:26.101Z,50.80
2023-02-25T18:29:57.818Z,24.77
2023-02-25T18:32:31.531Z,17.75
2023-02-25T18:34:58.636Z,13.52
2023-02-25T18:37:27.801Z,41.53
2023-02-25T18:39:54.808Z,15.05
2023-02-25T18:42:26.922Z,16.48
2023-02-25T18:44:56.538Z,11.82
2023-02-25T18:47:23.962Z,12.10
2023-02-25T18:49:51.117Z,14.75
2023-02-25T18:52:25.036Z,14.85
2023-02-25T18:54:52.488Z,8.95
2023-02-25T18:57:25.238Z,33.83
2023-02-25T18:59:53.071Z,35.63
2023-02-25T19:02:32.729Z,15.52
2023-02-25T19:05:03.919Z,22.88
2023-02-25T19:07:34.335Z,16.10
2023-02-25T19:10:01.919Z,40.45
2023-02-25T19:12:31.520Z,15.80
2023-02-25T19:15:01.430Z,16.08
2023-02-25T19:17:29.874Z,42.25
2023-02-25T19:19:57.700Z,45.55
2023-02-25T19:22:25.280Z,51.97
2023-02-25T19:24:52.297Z,34.58
2023-02-25T19:27:31.823Z,54.75
2023-02-25T19:29:59.447Z,14.13
2023-02-25T19:32:28.888Z,15.82
2023-02-25T19:34:56.347Z,56.10
2023-02-25T19:37:23.927Z,26.75
2023-02-25T19:39:51.109Z,65.30
2023-02-25T19:42:18.802Z,22.95
2023-02-25T19:44:45.844Z,7.43
2023-02-25T19:47:13.147Z,30.67
2023-02-25T19:49:40.205Z,7.35
2023-02-25T19:52:07.645Z,37.13
2023-02-25T19:54:34.688Z,30.67
2023-02-25T19:57:01.959Z,17.55
2023-02-25T19:59:30.629Z,9.38
2023-02-25T20:01:58.529Z,10.30
2023-02-25T20:04:26.259Z,26.70
2023-02-25T20:06:58.888Z,21.13
2023-02-25T20:09:26.083Z,35.33
2023-02-25T20:11:53.893Z,20.27
2023-02-25T20:14:23.023Z,17.80
2023-02-25T20:16:52.571Z,36.65
2023-02-25T20:19:19.675Z,12.98
2023-02-25T20:21:47.261Z,18.33
2023-02-25T20:24:15.670Z,17.73
2023-02-25T20:26:45.789Z,17.23
2023-02-25T20:29:12.795Z,12.18
2023-02-25T20:31:40.543Z,16.40
2023-02-25T20:34:13.530Z,15.00
2023-02-25T20:37:14.635Z,9.55
2023-02-25T20:39:56.031Z,7.72
2023-02-25T20:42:27.600Z,8.70
2023-02-25T20:44:55.242Z,17.55
2023-02-25T20:47:29.040Z,9.10
2023-02-25T20:49:58.197Z,17.10
2023-02-25T20:52:28.975Z,12.43
2023-02-25T20:54:56.565Z,11.75
2023-02-25T20:57:26.843Z,11.60
2023-02-25T20:59:54.615Z,11.52
2023-02-25T21:02:22.281Z,10.23
2023-02-25T21:04:50.379Z,8.52
2023-02-25T21:07:18.179Z,10.85
2023-02-25T21:09:45.639Z,18.70
2023-02-25T21:12:13.201Z,7.30
2023-02-25T21:14:40.312Z,12.50
2023-02-25T21:17:13.725Z,28.30
2023-02-25T21:19:41.175Z,13.55
2023-02-25T21:22:08.898Z,9.20
2023-02-25T21:24:36.767Z,12.90
2023-02-25T21:27:04.318Z,20.98
2023-02-25T21:29:32.490Z,20.90
2023-02-25T21:31:59.884Z,16.35
2023-02-25T21:34:27.204Z,6.18
2023-02-25T21:36:58.332Z,14.57
2023-02-25T21:39:26.470Z,9.50
2023-02-25T21:41:54.079Z,10.77
2023-02-25T21:44:22.929Z,9.75
2023-02-25T21:46:50.317Z,5.30
2023-02-25T21:49:17.398Z,6.53
2023-02-25T21:51:44.997Z,5.28
2023-02-25T21:54:13.297Z,6.90
2023-02-25T21:56:41.143Z,7.20
2023-02-25T21:59:08.592Z,10.82
2023-02-25T22:01:39.006Z,6.63
2023-02-25T22:04:07.143Z,5.80
2023-02-25T22:06:34.639Z,7.25
2023-02-25T22:09:01.780Z,6.30
2023-02-25T22:11:32.778Z,11.00
2023-02-25T22:14:01.816Z,10.07
2023-02-25T22:16:29.677Z,5.65
2023-02-25T22:18:57.282Z,4.35
2023-02-25T22:21:30.165Z,9.57
2023-02-25T22:23:59.633Z,7.15
2023-02-25T22:26:29.924Z,4.78
2023-02-25T22:28:59.491Z,5.65
2023-02-25T22:31:28.104Z,5.53
2023-02-25T22:33:56.560Z,4.82
2023-02-25T22:36:24.770Z,7.40
2023-02-25T22:38:52.736Z,6.18
2023-02-25T22:41:29.304Z,6.18
2023-02-25T22:43:58.311Z,5.53
2023-02-25T22:46:33.657Z,6.38
2023-02-25T22:51:33.729Z,5.47
2023-02-25T22:54:00.898Z,5.75
2023-02-25T22:56:28.448Z,5.78
2023-02-25T22:58:55.990Z,6.97
2023-02-25T23:01:24.648Z,8.38
2023-02-25T23:03:53.122Z,8.32
2023-02-25T23:06:34.212Z,7.07
2023-02-25T23:09:09.308Z,15.27
2023-02-25T23:11:36.639Z,9.40
2023-02-25T23:14:04.092Z,9.05
2023-02-25T23:16:43.028Z,7.80
2023-02-25T23:19:14.023Z,9.27
2023-02-25T23:21:44.703Z,8.90
2023-02-25T23:24:19.624Z,11.98
2023-02-25T23:26:50.417Z,10.23
2023-02-25T23:29:18.230Z,10.57
2023-02-25T23:31:47.984Z,8.20
2023-02-25T23:34:20.896Z,11.07
2023-02-25T23:36:48.679Z,12.40
2023-02-25T23:39:16.396Z,12.63
2023-02-25T23:41:44.278Z,9.63
2023-02-25T23:44:13.150Z,9.38
2023-02-25T23:46:45.151Z,27.33
2023-02-25T23:49:14.623Z,8.85
2023-02-25T23:51:46.620Z,8.02
2023-02-25T23:54:16.755Z,5.57
2023-02-25T23:56:44.768Z,4.00
2023-02-25T23:59:12.494Z,8.05
